createdAt,value
2022-08-03T00:02:20.036Z,100538.13
2022-08-03T00:04:47.795Z,100544.66
2022-08-03T00:07:15.559Z,100538.13
2022-08-03T00:09:43.558Z,100539.97
2022-08-03T00:12:11.526Z,100532.25
2022-08-03T00:14:38.983Z,100528.94
2022-08-03T00:17:06.491Z,100532.69
2022-08-03T00:19:34.396Z,100526.00
2022-08-03T00:22:01.816Z,100528.47
2022-08-03T00:24:31.290Z,100528.75
2022-08-03T00:26:58.677Z,100527.16
2022-08-03T00:29:26.195Z,100532.81
2022-08-03T00:32:00.086Z,100522.09
2022-08-03T00:34:30.945Z,100526.91
2022-08-03T00:37:04.201Z,100518.06
2022-08-03T00:39:32.037Z,100525.72
2022-08-03T00:42:05.529Z,100524.56
2022-08-03T00:44:39.858Z,100527.09
2022-08-03T00:47:08.680Z,100522.66
2022-08-03T00:49:41.010Z,100521.00
2022-08-03T00:52:10.159Z,100516.63
2022-08-03T00:54:38.939Z,100521.50
2022-08-03T00:57:07.974Z,100526.41
2022-08-03T00:59:35.626Z,100519.53
2022-08-03T01:02:03.097Z,100522.09
2022-08-03T01:04:30.603Z,100525.31
2022-08-03T01:07:10.669Z,100527.47
2022-08-03T01:09:46.451Z,100531.88
2022-08-03T01:12:33.318Z,100532.94
2022-08-03T01:15:24.980Z,100533.03
2022-08-03T01:18:24.622Z,100534.09
2022-08-03T01:20:56.453Z,100540.91
2022-08-03T01:23:49.267Z,100522.00
2022-08-03T01:27:03.401Z,100523.88
2022-08-03T01:29:48.272Z,100520.56
2022-08-03T01:32:54.552Z,100524.88
2022-08-03T01:35:12.911Z,100522.00
2022-08-03T01:37:48.217Z,100525.44
2022-08-03T01:40:17.744Z,100527.47
2022-08-03T01:42:47.996Z,100522.47
2022-08-03T01:45:18.787Z,100527.19
2022-08-03T01:47:48.787Z,100523.88
2022-08-03T01:50:21.165Z,100522.41
2022-08-03T01:52:49.624Z,100522.34
2022-08-03T01:55:20.139Z,100518.47
2022-08-03T01:58:05.721Z,100527.75
2022-08-03T02:00:38.883Z,100522.28
2022-08-03T02:03:08.840Z,100525.22
2022-08-03T02:05:38.171Z,100533.91
2022-08-03T02:08:09.136Z,100533.34
2022-08-03T02:10:38.091Z,100539.25
2022-08-03T02:13:07.589Z,100547.97
2022-08-03T02:15:37.723Z,100548.00
2022-08-03T02:18:07.987Z,100545.75
2022-08-03T02:20:37.949Z,100544.09
2022-08-03T02:23:06.824Z,100539.75
2022-08-03T02:25:41.681Z,100535.97
2022-08-03T02:28:12.562Z,100551.41
2022-08-03T02:30:43.112Z,100549.44
2022-08-03T02:33:25.134Z,100543.91
2022-08-03T02:35:54.350Z,100550.94
2022-08-03T02:38:26.258Z,100548.81
2022-08-03T02:40:57.518Z,100548.25
2022-08-03T02:43:26.788Z,100549.44
2022-08-03T02:45:54.619Z,100547.53
2022-08-03T02:48:29.210Z,100552.31
2022-08-03T02:51:00.016Z,100555.41
2022-08-03T02:53:28.965Z,100552.00
2022-08-03T02:55:57.768Z,100549.97
2022-08-03T02:58:26.176Z,100552.13
2022-08-03T03:00:54.357Z,100560.22
2022-08-03T03:03:22.692Z,100563.91
2022-08-03T03:05:56.408Z,100562.09
2022-08-03T03:08:28.232Z,100562.56
2022-08-03T03:10:58.303Z,100565.28
2022-08-03T03:13:28.330Z,100567.91
2022-08-03T03:15:57.827Z,100571.97
2022-08-03T03:18:27.778Z,100564.22
2022-08-03T03:20:56.476Z,100559.19
2022-08-03T03:23:26.581Z,100565.81
2022-08-03T03:25:56.187Z,100562.34
2022-08-03T03:28:25.464Z,100570.81
2022-08-03T03:30:53.537Z,100565.69
2022-08-03T03:33:22.671Z,100573.72
2022-08-03T03:35:51.951Z,100567.16
2022-08-03T03:38:20.588Z,100564.94
2022-08-03T03:40:48.789Z,100561.53
2022-08-03T03:43:18.702Z,100560.06
2022-08-03T03:45:47.923Z,100570.50
2022-08-03T03:48:16.157Z,100565.75
2022-08-03T03:50:44.406Z,100569.56
2022-08-03T03:53:13.821Z,100571.66
2022-08-03T03:55:59.179Z,100564.22
2022-08-03T03:58:30.777Z,100569.34
2022-08-03T04:00:58.380Z,100567.75
2022-08-03T04:03:25.884Z,100567.22
2022-08-03T04:06:19.536Z,100578.25
2022-08-03T04:09:06.823Z,100577.88
2022-08-03T04:11:39.887Z,100575.34
2022-08-03T04:14:12.405Z,100570.44
2022-08-03T04:16:43.949Z,100577.00
2022-08-03T04:19:27.154Z,100580.59
2022-08-03T04:21:59.252Z,100570.16
2022-08-03T04:24:41.642Z,100570.38
2022-08-03T04:27:12.998Z,100564.59
2022-08-03T04:29:46.454Z,100569.66
2022-08-03T04:32:17.734Z,100573.81
2022-08-03T04:34:45.570Z,100577.16
2022-08-03T04:37:21.887Z,100570.03
2022-08-03T04:39:51.766Z,100578.25
2022-08-03T04:42:22.686Z,100574.50
2022-08-03T04:44:51.496Z,100571.94
2022-08-03T04:47:19.395Z,100574.06
2022-08-03T04:49:47.645Z,100577.13
2022-08-03T04:52:15.229Z,100585.94
2022-08-03T04:54:50.276Z,100585.13
2022-08-03T04:57:22.205Z,100578.78
2022-08-03T05:00:02.235Z,100583.78
2022-08-03T05:02:31.510Z,100585.25
2022-08-03T05:04:59.859Z,100579.22
2022-08-03T05:07:35.596Z,100583.91
2022-08-03T05:10:14.945Z,100585.88
2022-08-03T05:12:45.107Z,100592.97
2022-08-03T05:15:13.209Z,100586.38
2022-08-03T05:17:41.662Z,100595.19
2022-08-03T05:20:10.177Z,100600.75
2022-08-03T05:22:37.882Z,100593.63
2022-08-03T05:25:05.677Z,100595.00
2022-08-03T05:27:33.309Z,100593.66
2022-08-03T05:30:29.620Z,100607.97
2022-08-03T05:32:48.639Z,100604.13
2022-08-03T05:36:02.451Z,100617.88
2022-08-03T05:38:03.929Z,100620.38
2022-08-03T05:40:33.311Z,100615.69
2022-08-03T05:43:01.831Z,100611.88
2022-08-03T05:45:29.411Z,100627.81
2022-08-03T05:47:56.945Z,100626.16
2022-08-03T05:50:24.472Z,100631.66
2022-08-03T05:52:57.735Z,100633.88
2022-08-03T05:55:25.773Z,100629.72
2022-08-03T05:57:55.256Z,100627.81
2022-08-03T06:00:24.459Z,100636.31
2022-08-03T06:02:53.255Z,100628.63
2022-08-03T06:05:20.753Z,100629.19
2022-08-03T06:07:48.645Z,100641.00
2022-08-03T06:10:36.387Z,100634.94
2022-08-03T06:13:04.276Z,100638.53
2022-08-03T06:15:33.595Z,100644.59
2022-08-03T06:18:02.121Z,100635.78
2022-08-03T06:20:30.357Z,100643.75
2022-08-03T06:23:00.894Z,100648.69
2022-08-03T06:25:29.227Z,100647.34
2022-08-03T06:27:57.157Z,100655.81
2022-08-03T06:30:24.888Z,100656.41
2022-08-03T06:32:52.606Z,100648.69
2022-08-03T06:35:20.483Z,100656.94
2022-08-03T06:37:50.544Z,100655.31
2022-08-03T06:40:21.845Z,100654.72
2022-08-03T06:42:52.180Z,100658.59
2022-08-03T06:45:19.720Z,100661.31
2022-08-03T06:47:47.420Z,100664.09
2022-08-03T06:50:17.566Z,100668.47
2022-08-03T06:52:46.685Z,100665.16
2022-08-03T06:55:14.136Z,100668.75
2022-08-03T06:57:41.741Z,100670.69
2022-08-03T07:00:12.379Z,100664.34
2022-08-03T07:02:40.920Z,100669.03
2022-08-03T07:05:09.988Z,100676.72
2022-08-03T07:07:38.511Z,100671.22
2022-08-03T07:10:07.394Z,100677.84
2022-08-03T07:12:35.626Z,100679.22
2022-08-03T07:15:04.996Z,100685.53
2022-08-03T07:17:36.921Z,100687.19
2022-08-03T07:20:08.461Z,100683.88
2022-08-03T07:22:36.367Z,100694.06
2022-08-03T07:25:04.188Z,100689.94
2022-08-03T07:27:33.983Z,100692.13
2022-08-03T07:30:01.966Z,100689.94
2022-08-03T07:32:31.671Z,100696.00
2022-08-03T07:35:01.126Z,100688.28
2022-08-03T07:37:30.108Z,100689.91
2022-08-03T07:39:58.237Z,100687.75
2022-08-03T07:42:29.181Z,100693.78
2022-08-03T07:44:57.603Z,100693.78
2022-08-03T07:47:35.269Z,100696.00
2022-08-03T07:50:05.614Z,100693.19
2022-08-03T07:52:48.261Z,100704.75
2022-08-03T07:55:17.323Z,100703.06
2022-08-03T07:57:44.819Z,100696.44
2022-08-03T08:00:18.682Z,100702.50
2022-08-03T08:02:46.283Z,100703.88
2022-08-03T08:05:13.851Z,100711.53
2022-08-03T08:07:41.345Z,100708.78
2022-08-03T08:10:10.567Z,100717.59
2022-08-03T08:12:39.614Z,100708.53
2022-08-03T08:15:09.284Z,100712.94
2022-08-03T08:17:49.429Z,100711.34
2022-08-03T08:20:27.732Z,100718.25
2022-08-03T08:23:01.544Z,100722.59
2022-08-03T08:25:31.149Z,100714.63
2022-08-03T08:28:22.461Z,100712.63
2022-08-03T08:30:50.483Z,100705.38
2022-08-03T08:33:23.593Z,100718.16
2022-08-03T08:35:53.279Z,100711.38
2022-08-03T08:38:21.620Z,100720.19
2022-08-03T08:40:50.681Z,100712.50
2022-08-03T08:43:18.141Z,100718.88
2022-08-03T08:45:47.373Z,100712.56
2022-08-03T08:48:15.749Z,100710.97
2022-08-03T08:50:43.693Z,100713.38
2022-08-03T08:53:18.210Z,100714.75
2022-08-03T08:55:58.054Z,100710.97
2022-08-03T08:58:32.190Z,100716.22
2022-08-03T09:00:59.966Z,100716.19
2022-08-03T09:03:29.841Z,100708.50
2022-08-03T09:06:00.888Z,100709.59
2022-08-03T09:08:32.871Z,100705.16
2022-08-03T09:11:00.669Z,100705.91
2022-08-03T09:13:29.382Z,100707.00
2022-08-03T09:16:19.629Z,100704.22
2022-08-03T09:18:50.154Z,100707.50
2022-08-03T09:21:34.525Z,100703.16
2022-08-03T09:24:06.278Z,100716.78
2022-08-03T09:26:38.289Z,100708.72
2022-08-03T09:29:14.948Z,100704.19
2022-08-03T09:31:45.293Z,100712.50
2022-08-03T09:34:15.064Z,100710.50
2022-08-03T09:36:50.370Z,100713.09
2022-08-03T09:39:19.843Z,100712.84
2022-08-03T09:42:08.321Z,100705.78
2022-08-03T09:44:37.058Z,100715.25
2022-08-03T09:47:05.768Z,100721.41
2022-08-03T09:49:33.490Z,100718.56
2022-08-03T09:52:38.135Z,100717.50
2022-08-03T09:56:32.818Z,100714.47
2022-08-03T09:58:06.329Z,100704.50
2022-08-03T10:00:54.181Z,100718.44
2022-08-03T10:03:22.400Z,100710.59
2022-08-03T10:05:50.075Z,100714.56
2022-08-03T10:08:19.269Z,100710.22
2022-08-03T10:10:49.476Z,100716.59
2022-08-03T10:13:19.133Z,100720.31
2022-08-03T10:16:22.824Z,100717.84
2022-08-03T10:18:36.519Z,100719.66
2022-08-03T10:21:08.083Z,100726.16
2022-08-03T10:23:38.094Z,100721.31
2022-08-03T10:26:07.869Z,100720.63
2022-08-03T10:28:45.344Z,100719.47
2022-08-03T10:31:14.694Z,100723.69
2022-08-03T10:33:49.963Z,100723.34
2022-08-03T10:36:23.999Z,100717.00
2022-08-03T10:38:53.835Z,100722.44
2022-08-03T10:41:23.526Z,100715.94
2022-08-03T10:43:57.141Z,100704.19
2022-08-03T10:46:26.450Z,100706.53
2022-08-03T10:48:55.042Z,100717.44
2022-08-03T10:51:24.398Z,100711.47
2022-08-03T10:53:54.767Z,100701.34
2022-08-03T10:56:50.845Z,100701.03
2022-08-03T10:59:47.222Z,100713.19
2022-08-03T11:02:15.850Z,100710.22
2022-08-03T11:04:45.384Z,100715.09
2022-08-03T11:07:22.093Z,100715.59
2022-08-03T11:09:54.795Z,100724.38
2022-08-03T11:12:30.361Z,100715.91
2022-08-03T11:15:07.706Z,100713.66
2022-08-03T11:17:46.717Z,100714.34
2022-08-03T11:20:46.191Z,100710.56
2022-08-03T11:23:15.849Z,100714.69
2022-08-03T11:26:12.493Z,100714.75
2022-08-03T11:28:41.433Z,100714.38
2022-08-03T11:34:13.850Z,100709.44
2022-08-03T11:37:20.603Z,100722.28
2022-08-03T11:39:50.375Z,100705.94
2022-08-03T11:42:24.140Z,100702.13
2022-08-03T11:44:53.580Z,100710.56
2022-08-03T11:47:22.577Z,100712.31
2022-08-03T11:49:53.751Z,100711.19
2022-08-03T11:52:26.966Z,100722.22
2022-08-03T11:54:56.941Z,100712.25
2022-08-03T11:59:17.314Z,100725.16
2022-08-03T12:00:27.817Z,100711.59
2022-08-03T12:02:59.280Z,100719.28
2022-08-03T12:05:37.994Z,100712.28
2022-08-03T12:08:07.950Z,100721.19
2022-08-03T12:10:36.087Z,100711.03
2022-08-03T12:14:35.763Z,100705.44
2022-08-03T12:15:59.390Z,100712.66
2022-08-03T12:18:26.942Z,100705.94
2022-08-03T12:21:05.329Z,100709.28
2022-08-03T12:23:37.563Z,100706.44
2022-08-03T12:26:08.283Z,100709.13
2022-08-03T12:28:38.318Z,100708.47
2022-08-03T12:31:09.520Z,100709.25
2022-08-03T12:33:59.911Z,100695.00
2022-08-03T12:36:30.838Z,100694.56
2022-08-03T12:39:00.715Z,100690.78
2022-08-03T12:41:39.025Z,100689.50
2022-08-03T12:44:08.182Z,100686.03
2022-08-03T12:46:45.373Z,100675.38
2022-08-03T12:49:19.252Z,100674.72
2022-08-03T12:51:46.734Z,100668.19
2022-08-03T12:54:32.641Z,100667.03
2022-08-03T12:57:18.140Z,100664.44
2022-08-03T12:59:53.179Z,100655.56
2022-08-03T13:02:23.476Z,100663.28
2022-08-03T13:04:53.168Z,100656.72
2022-08-03T13:07:22.313Z,100650.97
2022-08-03T13:09:55.652Z,100647.56
2022-08-03T13:12:27.694Z,100644.97
2022-08-03T13:14:57.317Z,100647.03
2022-08-03T13:17:25.169Z,100645.88
2022-08-03T13:19:56.509Z,100641.00
2022-08-03T13:22:30.387Z,100655.91
2022-08-03T13:24:58.384Z,100655.03
2022-08-03T13:28:03.679Z,100659.13
2022-08-03T13:30:23.403Z,100661.44
2022-08-03T13:33:00.256Z,100662.13
2022-08-03T13:35:27.716Z,100661.94
2022-08-03T13:37:55.225Z,100664.59
2022-08-03T13:40:23.578Z,100665.19
2022-08-03T13:42:57.467Z,100668.19
2022-08-03T13:45:25.494Z,100670.63
2022-08-03T13:47:53.039Z,100670.94
2022-08-03T13:50:20.840Z,100673.81
2022-08-03T13:52:48.326Z,100679.44
2022-08-03T13:55:15.750Z,100674.66
2022-08-03T13:58:03.130Z,100676.75
2022-08-03T14:00:30.702Z,100680.66
2022-08-03T14:03:10.822Z,100684.22
2022-08-03T14:05:44.810Z,100678.66
2022-08-03T14:08:12.801Z,100684.00
2022-08-03T14:10:45.870Z,100683.38
2022-08-03T14:13:18.054Z,100686.06
2022-08-03T14:15:50.120Z,100688.63
2022-08-03T14:18:29.189Z,100688.00
2022-08-03T14:21:06.055Z,100693.66
2022-08-03T14:23:36.239Z,100699.03
2022-08-03T14:26:05.110Z,100702.97
2022-08-03T14:28:33.260Z,100696.88
2022-08-03T14:31:01.601Z,100707.91
2022-08-03T14:33:29.252Z,100697.22
2022-08-03T14:35:57.160Z,100701.41
2022-08-03T14:38:24.996Z,100695.34
2022-08-03T14:40:53.250Z,100693.25
2022-08-03T14:43:21.512Z,100703.41
2022-08-03T14:45:52.508Z,100707.69
2022-08-03T14:50:30.176Z,100698.88
2022-08-03T14:51:08.468Z,100697.69
2022-08-03T14:53:35.954Z,100703.81
2022-08-03T14:56:07.941Z,100699.03
2022-08-03T14:58:37.058Z,100697.00
2022-08-03T15:02:02.092Z,100690.81
2022-08-03T15:03:51.913Z,100692.34
2022-08-03T15:06:19.428Z,100693.84
2022-08-03T15:09:05.951Z,100691.03
2022-08-03T15:11:35.359Z,100688.91
2022-08-03T15:14:08.663Z,100686.56
2022-08-03T15:16:37.737Z,100682.00
2022-08-03T15:19:05.405Z,100688.03
2022-08-03T15:21:52.976Z,100678.38
2022-08-03T15:24:20.769Z,100690.69
2022-08-03T15:26:48.193Z,100682.41
2022-08-03T15:30:05.918Z,100681.78
2022-08-03T15:32:08.698Z,100684.25
2022-08-03T15:34:37.287Z,100686.78
2022-08-03T15:37:16.331Z,100683.00
2022-08-03T15:39:59.603Z,100683.00
2022-08-03T15:42:32.959Z,100681.63
2022-08-03T15:45:00.653Z,100676.94
2022-08-03T15:47:28.284Z,100686.19
2022-08-03T15:49:55.817Z,100682.59
2022-08-03T15:52:23.261Z,100687.25
2022-08-03T15:54:50.774Z,100687.03
2022-08-03T15:57:18.371Z,100679.56
2022-08-03T15:59:46.294Z,100682.06
2022-08-03T16:02:13.955Z,100670.47
2022-08-03T16:04:41.369Z,100672.41
2022-08-03T16:07:12.839Z,100673.22
2022-08-03T16:09:43.496Z,100675.25
2022-08-03T16:12:15.913Z,100676.13
2022-08-03T16:14:53.823Z,100688.91
2022-08-03T16:17:22.523Z,100680.66
2022-08-03T16:19:53.409Z,100682.13
2022-08-03T16:22:24.929Z,100682.72
2022-08-03T16:24:54.116Z,100694.41
2022-08-03T16:27:37.044Z,100687.84
2022-08-03T16:30:07.522Z,100689.06
2022-08-03T16:32:35.967Z,100687.53
2022-08-03T16:35:04.250Z,100692.47
2022-08-03T16:37:39.634Z,100700.25
2022-08-03T16:40:19.006Z,100708.50
2022-08-03T16:42:47.721Z,100702.19
2022-08-03T16:45:15.261Z,100706.38
2022-08-03T16:47:42.752Z,100713.53
2022-08-03T16:50:15.946Z,100716.28
2022-08-03T16:52:48.681Z,100724.84
2022-08-03T16:55:43.520Z,100721.53
2022-08-03T16:58:05.952Z,100731.75
2022-08-03T17:00:41.720Z,100722.94
2022-08-03T17:03:16.387Z,100727.88
2022-08-03T17:05:50.046Z,100726.25
2022-08-03T17:08:26.103Z,100729.81
2022-08-03T17:10:56.255Z,100727.03
2022-08-03T17:13:38.833Z,100719.66
2022-08-03T17:16:10.552Z,100728.72
2022-08-03T17:18:47.300Z,100727.91
2022-08-03T17:21:17.559Z,100735.31
2022-08-03T17:24:02.986Z,100738.88
2022-08-03T17:26:34.781Z,100744.38
2022-08-03T17:29:12.661Z,100754.56
2022-08-03T17:31:49.022Z,100755.66
2022-08-03T17:34:18.774Z,100754.81
2022-08-03T17:37:03.730Z,100755.09
2022-08-03T17:39:57.157Z,100760.31
2022-08-03T17:42:30.268Z,100762.50
2022-08-03T17:45:01.936Z,100765.53
2022-08-03T17:47:42.056Z,100766.09
2022-08-03T17:50:24.539Z,100773.81
2022-08-03T17:53:07.278Z,100773.53
2022-08-03T17:55:54.915Z,100765.53
2022-08-03T17:58:36.474Z,100771.88
2022-08-03T18:02:06.028Z,100770.75
2022-08-03T18:04:15.992Z,100780.66
2022-08-03T18:06:56.425Z,100779.28
2022-08-03T18:10:04.807Z,100780.13
2022-08-03T18:12:44.723Z,100782.34
2022-08-03T18:15:21.185Z,100782.88
2022-08-03T18:17:55.621Z,100779.03
2022-08-03T18:20:34.547Z,100780.66
2022-08-03T18:23:25.243Z,100781.78
2022-08-03T18:26:12.287Z,100782.31
2022-08-03T18:28:40.931Z,100789.97
2022-08-03T18:32:00.503Z,100786.69
2022-08-03T18:34:19.273Z,100790.53
2022-08-03T18:36:52.199Z,100787.50
2022-08-03T18:39:22.447Z,100786.66
2022-08-03T18:41:50.053Z,100788.63
2022-08-03T18:44:38.023Z,100794.91
2022-08-03T18:47:50.666Z,100793.25
2022-08-03T18:50:29.307Z,100793.31
2022-08-03T18:53:19.576Z,100786.69
2022-08-03T18:56:02.171Z,100789.69
2022-08-03T18:58:56.435Z,100782.81
2022-08-03T19:01:58.294Z,100787.22
2022-08-03T19:04:35.849Z,100790.44
2022-08-03T19:07:11.159Z,100792.09
2022-08-03T19:09:58.508Z,100794.28
2022-08-03T19:12:45.977Z,100790.19
2022-08-03T19:15:15.703Z,100788.22
2022-08-03T19:17:52.837Z,100787.69
2022-08-03T19:20:25.056Z,100789.63
2022-08-03T19:23:13.090Z,100788.75
2022-08-03T19:25:42.566Z,100787.63
2022-08-03T19:28:10.048Z,100788.19
2022-08-03T19:30:40.493Z,100789.59
2022-08-03T19:33:12.634Z,100793.78
2022-08-03T19:35:51.773Z,100786.59
2022-08-03T19:38:29.185Z,100785.22
2022-08-03T19:41:00.983Z,100785.75
2022-08-03T19:43:58.421Z,100783.34
2022-08-03T19:46:31.073Z,100780.25
2022-08-03T19:49:10.698Z,100779.97
2022-08-03T19:52:02.453Z,100773.09
2022-08-03T19:54:53.084Z,100782.19
2022-08-03T19:57:25.363Z,100778.88
2022-08-03T19:59:57.066Z,100780.50
2022-08-03T20:02:26.654Z,100772.22
2022-08-03T20:04:59.945Z,100774.44
2022-08-03T20:07:32.114Z,100779.94
2022-08-03T20:10:02.664Z,100776.63
2022-08-03T20:12:38.591Z,100774.16
2022-08-03T20:15:09.325Z,100784.34
2022-08-03T20:20:33.331Z,100782.13
2022-08-03T20:23:07.919Z,100786.22
2022-08-03T20:25:58.718Z,100786.78
2022-08-03T20:28:50.598Z,100785.66
2022-08-03T20:31:23.955Z,100790.88
2022-08-03T20:34:00.958Z,100788.41
2022-08-03T20:36:28.536Z,100784.28
2022-08-03T20:38:58.248Z,100785.31
2022-08-03T20:41:25.939Z,100784.28
2022-08-03T20:43:53.546Z,100787.56
2022-08-03T20:46:32.056Z,100784.78
2022-08-03T20:49:06.333Z,100784.28
2022-08-03T20:51:50.030Z,100780.09
2022-08-03T20:57:10.891Z,100777.09
2022-08-03T20:59:50.255Z,100775.44
2022-08-03T21:02:29.618Z,100781.19
2022-08-03T21:05:02.828Z,100786.13
2022-08-03T21:07:45.632Z,100776.00
2022-08-03T21:10:30.089Z,100778.25
2022-08-03T21:13:03.793Z,100775.00
2022-08-03T21:13:07.724Z,100785.59
2022-08-03T21:13:12.501Z,100790.06
2022-08-03T21:16:11.321Z,100789.94
2022-08-03T21:18:42.231Z,100782.81
2022-08-03T21:21:14.013Z,100786.41
2022-08-03T21:23:48.798Z,100787.25
2022-08-03T21:26:23.740Z,100786.34
2022-08-03T21:28:53.957Z,100791.31
2022-08-03T21:31:25.111Z,100783.59
2022-08-03T21:33:58.566Z,100784.41
2022-08-03T21:36:31.987Z,100783.47
2022-08-03T21:39:01.099Z,100784.59
2022-08-03T21:41:31.319Z,100785.81
2022-08-03T21:43:59.653Z,100795.91
2022-08-03T21:46:31.549Z,100795.28
2022-08-03T21:50:04.618Z,100792.34
2022-08-03T21:51:55.669Z,100793.47
2022-08-03T21:54:30.251Z,100799.22
2022-08-03T21:57:03.557Z,100791.88
2022-08-03T21:59:37.186Z,100785.13
2022-08-03T22:02:06.631Z,100797.72
2022-08-03T22:04:56.210Z,100793.34
2022-08-03T22:07:27.280Z,100796.34
2022-08-03T22:09:56.847Z,100794.44
2022-08-03T22:12:26.764Z,100786.25
2022-08-03T22:15:01.133Z,100791.56
2022-08-03T22:17:54.071Z,100790.72
2022-08-03T22:20:20.859Z,100790.44
2022-08-03T22:22:55.737Z,100795.59
2022-08-03T22:25:29.169Z,100796.75
2022-08-03T22:27:59.393Z,100796.75
2022-08-03T22:30:27.373Z,100801.41
2022-08-03T22:32:56.441Z,100801.59
2022-08-03T22:35:26.084Z,100809.84
2022-08-03T22:37:55.806Z,100808.13
2022-08-03T22:40:24.239Z,100806.41
2022-08-03T22:42:52.713Z,100810.19
2022-08-03T22:46:06.947Z,100807.38
2022-08-03T22:48:08.635Z,100805.66
2022-08-03T22:50:36.244Z,100815.97
2022-08-03T22:53:03.794Z,100813.09
2022-08-03T22:55:31.598Z,100815.75
2022-08-03T22:57:58.938Z,100812.56
2022-08-03T23:00:26.398Z,100814.44
2022-08-03T23:02:55.705Z,100816.56
2022-08-03T23:06:01.378Z,100815.06
2022-08-03T23:08:23.090Z,100817.09
2022-08-03T23:10:52.186Z,100817.44
2022-08-03T23:13:25.165Z,100828.78
2022-08-03T23:15:57.799Z,100823.25
2022-08-03T23:18:32.013Z,100816.88
2022-08-03T23:21:11.240Z,100813.78
2022-08-03T23:23:44.334Z,100805.69
2022-08-03T23:26:13.678Z,100802.84
2022-08-03T23:28:46.829Z,100807.50
2022-08-03T23:31:15.689Z,100797.03
2022-08-03T23:33:44.996Z,100798.06
2022-08-03T23:36:31.113Z,100799.72
2022-08-03T23:39:02.441Z,100802.22
2022-08-03T23:41:33.325Z,100801.91
2022-08-03T23:44:03.985Z,100812.59
2022-08-03T23:46:32.715Z,100810.56
2022-08-03T23:49:00.556Z,100804.84
2022-08-03T23:51:37.015Z,100801.25
2022-08-03T23:54:18.600Z,100816.59
2022-08-03T23:56:53.510Z,100812.50
2022-08-03T23:59:36.741Z,100806.75
